KHPT/HPT METAR and TAF weather

Enter ICAO airport designator
Station Type Date Time Source
KHPT METAR 2020/12/05 05:15 UTC NOAA

KHPT 050515Z AUTO 00000KT 10SM CLR M02/M03 A3007 RMK AO2


Station Type Date Time Source
KHPT Decoded METAR 2020/12/05 05:15 UTC NOAA

Station name not available
Dec 05, 2020 - 12:15 AM EST / 2020.12.05 0515 UTC
Wind: Calm:0
Visibility: 10 mile(s):0
Sky conditions: clear
Temperature: 28 F (-2 C)
Dew Point: 26 F (-3 C)
Relative Humidity: 92%
Pressure (altimeter): 30.07 in. Hg (1018 hPa)
ob: KHPT 050515Z AUTO 00000KT 10SM CLR M02/M03 A3007 RMK AO2
cycle: 5

Station Type Date Time Source
KHPT TAF UTC NOAA

Error!

Example: see airport list